createdAt,value
2024-01-01T00:00:21.171Z,1001.36
2024-01-01T00:01:21.248Z,1001.36
2024-01-01T00:02:21.206Z,1001.36
2024-01-01T00:03:21.198Z,1001.32
2024-01-01T00:04:21.138Z,1001.33
2024-01-01T00:05:21.268Z,1001.34
2024-01-01T00:06:21.131Z,1001.36
2024-01-01T00:07:21.091Z,1001.37
2024-01-01T00:08:21.117Z,1001.35
2024-01-01T00:09:21.088Z,1001.32
2024-01-01T00:10:21.043Z,1001.27
2024-01-01T00:11:21.073Z,1001.23
2024-01-01T00:12:21.039Z,1001.22
2024-01-01T00:13:21.030Z,1001.22
2024-01-01T00:14:21.018Z,1001.22
2024-01-01T00:15:21.031Z,1001.25
2024-01-01T00:16:20.981Z,1001.27
2024-01-01T00:17:21.019Z,1001.26
2024-01-01T00:18:21.012Z,1001.26
2024-01-01T00:19:21.046Z,1001.21
2024-01-01T00:20:21.059Z,1001.20
2024-01-01T00:21:20.951Z,1001.19
2024-01-01T00:22:20.932Z,1001.18
2024-01-01T00:23:20.909Z,1001.19
2024-01-01T00:24:20.899Z,1001.19
2024-01-01T00:25:20.926Z,1001.14
2024-01-01T00:26:20.890Z,1001.13
2024-01-01T00:27:20.916Z,1001.10
2024-01-01T00:28:21.407Z,1001.10
2024-01-01T00:29:25.266Z,1001.13
2024-01-01T00:30:20.906Z,1001.14
2024-01-01T00:31:20.845Z,1001.15
2024-01-01T00:32:20.830Z,1001.13
2024-01-01T00:33:20.928Z,1001.12
2024-01-01T00:34:20.793Z,1001.14
2024-01-01T00:35:20.850Z,1001.15
2024-01-01T00:36:20.801Z,1001.19
2024-01-01T00:37:20.771Z,1001.19
2024-01-01T00:38:20.783Z,1001.18
2024-01-01T00:39:20.769Z,1001.18
2024-01-01T00:40:20.757Z,1001.17
2024-01-01T00:41:20.765Z,1001.16
2024-01-01T00:42:20.702Z,1001.12
2024-01-01T00:43:20.714Z,1001.09
2024-01-01T00:44:20.685Z,1001.09
2024-01-01T00:45:20.753Z,1001.13
2024-01-01T00:46:20.675Z,1001.19
2024-01-01T00:47:20.869Z,1001.25
2024-01-01T00:48:20.685Z,1001.27
2024-01-01T00:49:20.651Z,1001.25
2024-01-01T00:50:20.692Z,1001.23
2024-01-01T00:51:20.649Z,1001.17
2024-01-01T00:52:20.604Z,1001.17
2024-01-01T00:53:20.627Z,1001.20
2024-01-01T00:54:20.586Z,1001.22
2024-01-01T00:55:24.025Z,1001.26
2024-01-01T00:56:20.611Z,1001.29
2024-01-01T00:57:20.545Z,1001.28
2024-01-01T00:58:20.534Z,1001.27
2024-01-01T00:59:21.625Z,1001.26
2024-01-01T01:00:20.562Z,1001.30
2024-01-01T01:01:20.526Z,1001.29
2024-01-01T01:02:20.578Z,1001.30
2024-01-01T01:03:20.580Z,1001.30
2024-01-01T01:04:20.488Z,1001.28
2024-01-01T01:05:20.627Z,1001.26
2024-01-01T01:06:24.620Z,1001.30
2024-01-01T01:07:20.462Z,1001.29
2024-01-01T01:08:20.478Z,1001.31
2024-01-01T01:09:20.427Z,1001.31
2024-01-01T01:10:20.417Z,1001.33
2024-01-01T01:11:20.439Z,1001.31
2024-01-01T01:12:20.387Z,1001.34
2024-01-01T01:13:20.389Z,1001.33
2024-01-01T01:14:20.363Z,1001.35
2024-01-01T01:15:20.371Z,1001.36
2024-01-01T01:16:20.392Z,1001.35
2024-01-01T01:17:20.343Z,1001.34
2024-01-01T01:18:20.410Z,1001.34
2024-01-01T01:19:20.328Z,1001.33
2024-01-01T01:20:20.342Z,1001.32
2024-01-01T01:21:20.314Z,1001.32
2024-01-01T01:22:20.305Z,1001.31
2024-01-01T01:23:20.297Z,1001.30
2024-01-01T01:24:20.284Z,1001.30
2024-01-01T01:25:20.247Z,1001.28
2024-01-01T01:26:20.277Z,1001.27
2024-01-01T01:27:20.229Z,1001.25
2024-01-01T01:28:20.209Z,1001.24
2024-01-01T01:29:20.221Z,1001.22
2024-01-01T01:30:20.184Z,1001.21
2024-01-01T01:31:20.211Z,1001.22
2024-01-01T01:32:20.201Z,1001.24
2024-01-01T01:33:20.295Z,1001.24
2024-01-01T01:34:20.158Z,1001.24
2024-01-01T01:35:20.160Z,1001.24
2024-01-01T01:36:20.123Z,1001.26
2024-01-01T01:37:20.150Z,1001.27
2024-01-01T01:38:20.225Z,1001.27
2024-01-01T01:39:20.092Z,1001.28
2024-01-01T01:40:20.089Z,1001.29
2024-01-01T01:41:20.074Z,1001.30
2024-01-01T01:42:20.082Z,1001.27
2024-01-01T01:43:20.056Z,1001.24
2024-01-01T01:44:20.034Z,1001.23
2024-01-01T01:45:20.018Z,1001.22
2024-01-01T01:46:20.016Z,1001.23
2024-01-01T01:47:20.065Z,1001.26
2024-01-01T01:48:20.125Z,1001.25
2024-01-01T01:49:20.017Z,1001.22
2024-01-01T01:50:19.989Z,1001.18
2024-01-01T01:51:19.992Z,1001.16
2024-01-01T01:52:19.998Z,1001.19
2024-01-01T01:53:19.966Z,1001.17
2024-01-01T01:54:19.928Z,1001.17
2024-01-01T01:55:19.930Z,1001.15
2024-01-01T01:56:19.922Z,1001.14
2024-01-01T01:57:19.888Z,1001.14
2024-01-01T01:58:19.906Z,1001.13
2024-01-01T01:59:19.876Z,1001.12
2024-01-01T02:00:19.862Z,1001.11
2024-01-01T02:01:19.915Z,1001.08
2024-01-01T02:02:19.885Z,1001.04
2024-01-01T02:03:19.884Z,1001.03
2024-01-01T02:04:19.838Z,1001.01
2024-01-01T02:05:19.940Z,1001.00
2024-01-01T02:06:19.818Z,1000.99
2024-01-01T02:07:19.802Z,1000.98
2024-01-01T02:08:19.916Z,1000.97
2024-01-01T02:09:19.776Z,1000.97
2024-01-01T02:10:19.776Z,1000.98
2024-01-01T02:11:19.981Z,1000.97
2024-01-01T02:12:19.724Z,1000.95
2024-01-01T02:13:19.741Z,1000.96
2024-01-01T02:14:19.744Z,1000.97
2024-01-01T02:15:19.706Z,1000.98
2024-01-01T02:16:19.700Z,1001.00
2024-01-01T02:17:19.672Z,1001.00
2024-01-01T02:18:19.755Z,1000.98
2024-01-01T02:19:19.672Z,1000.98
2024-01-01T02:20:20.089Z,1001.00
2024-01-01T02:21:19.634Z,1001.00
2024-01-01T02:22:19.602Z,1001.00
2024-01-01T02:23:20.241Z,1001.02
2024-01-01T02:24:19.583Z,1001.02
2024-01-01T02:25:19.573Z,1001.03
2024-01-01T02:26:19.593Z,1001.03
2024-01-01T02:27:19.607Z,1001.01
2024-01-01T02:28:19.526Z,1001.01
2024-01-01T02:29:19.554Z,1001.00
2024-01-01T02:30:19.544Z,1000.99
2024-01-01T02:31:19.508Z,1000.99
2024-01-01T02:32:19.515Z,1001.00
2024-01-01T02:33:19.532Z,1001.03
2024-01-01T02:34:19.515Z,1001.05
2024-01-01T02:35:19.532Z,1001.07
2024-01-01T02:36:19.458Z,1001.08
2024-01-01T02:37:19.468Z,1001.09
2024-01-01T02:38:19.441Z,1001.07
2024-01-01T02:39:19.474Z,1001.04
2024-01-01T02:40:19.396Z,1001.02
2024-01-01T02:41:19.408Z,1001.01
2024-01-01T02:42:19.371Z,1001.00
2024-01-01T02:43:19.408Z,1001.00
2024-01-01T02:44:19.462Z,1001.00
2024-01-01T02:45:19.363Z,1000.99
2024-01-01T02:46:19.338Z,1001.01
2024-01-01T02:47:19.357Z,1000.98
2024-01-01T02:48:19.353Z,1000.97
2024-01-01T02:49:19.365Z,1000.97
2024-01-01T02:50:19.328Z,1000.99
2024-01-01T02:51:19.288Z,1001.00
2024-01-01T02:52:19.268Z,1001.00
2024-01-01T02:53:19.316Z,1001.01
2024-01-01T02:54:19.241Z,1001.04
2024-01-01T02:55:19.269Z,1001.05
2024-01-01T02:56:19.304Z,1001.06
2024-01-01T02:57:19.222Z,1001.05
2024-01-01T02:58:19.213Z,1001.03
2024-01-01T02:59:19.273Z,1001.03
2024-01-01T03:00:19.196Z,1001.03
2024-01-01T03:01:19.155Z,1001.03
2024-01-01T03:02:19.175Z,1001.02
2024-01-01T03:03:19.194Z,1001.00
2024-01-01T03:04:19.185Z,1000.96
2024-01-01T03:05:19.217Z,1000.94
2024-01-01T03:06:19.238Z,1000.94
2024-01-01T03:07:19.083Z,1000.99
2024-01-01T03:08:19.307Z,1001.00
2024-01-01T03:09:19.069Z,1000.99
2024-01-01T03:10:19.096Z,1001.01
2024-01-01T03:11:19.100Z,1001.00
2024-01-01T03:12:19.547Z,1001.00
2024-01-01T03:13:19.045Z,1001.00
2024-01-01T03:14:19.052Z,1000.99
2024-01-01T03:15:19.056Z,1001.00
2024-01-01T03:16:19.035Z,1000.99
2024-01-01T03:17:19.027Z,1000.99
2024-01-01T03:18:19.101Z,1001.00
2024-01-01T03:19:19.021Z,1001.00
2024-01-01T03:20:19.051Z,1001.01
2024-01-01T03:21:18.942Z,1001.01
2024-01-01T03:22:18.944Z,1001.00
2024-01-01T03:23:18.999Z,1001.01
2024-01-01T03:24:18.910Z,1000.99
2024-01-01T03:25:18.918Z,1001.00
2024-01-01T03:26:19.082Z,1000.98
2024-01-01T03:27:18.902Z,1000.96
2024-01-01T03:28:18.867Z,1000.95
2024-01-01T03:29:18.925Z,1000.94
2024-01-01T03:30:18.922Z,1000.94
2024-01-01T03:31:18.861Z,1000.92
2024-01-01T03:32:18.829Z,1000.93
2024-01-01T03:33:18.975Z,1000.92
2024-01-01T03:34:18.813Z,1000.93
2024-01-01T03:35:18.869Z,1000.93
2024-01-01T03:36:18.791Z,1000.94
2024-01-01T03:37:18.768Z,1000.93
2024-01-01T03:38:18.810Z,1000.93
2024-01-01T03:39:18.733Z,1000.94
2024-01-01T03:40:18.722Z,1000.93
2024-01-01T03:41:18.784Z,1000.95
2024-01-01T03:42:18.728Z,1000.95
2024-01-01T03:43:18.688Z,1000.96
2024-01-01T03:44:18.683Z,1000.96
2024-01-01T03:45:18.694Z,1000.97
2024-01-01T03:46:18.729Z,1000.98
2024-01-01T03:47:18.731Z,1000.97
2024-01-01T03:48:18.747Z,1000.97
2024-01-01T03:49:19.472Z,1000.96
2024-01-01T03:50:18.657Z,1000.95
2024-01-01T03:51:18.646Z,1000.93
2024-01-01T03:52:18.583Z,1000.92
2024-01-01T03:53:18.599Z,1000.90
2024-01-01T03:54:18.593Z,1000.90
2024-01-01T03:55:18.551Z,1000.91
2024-01-01T03:56:18.612Z,1000.90
2024-01-01T03:57:18.519Z,1000.90
2024-01-01T03:58:18.523Z,1000.89
2024-01-01T03:59:18.601Z,1000.90
2024-01-01T04:00:18.496Z,1000.91
2024-01-01T04:01:18.521Z,1000.92
2024-01-01T04:02:18.521Z,1000.92
2024-01-01T04:03:18.538Z,1000.95
2024-01-01T04:04:18.452Z,1000.98
2024-01-01T04:05:18.483Z,1000.99
2024-01-01T04:06:18.525Z,1001.01
2024-01-01T04:07:18.442Z,1001.02
2024-01-01T04:08:18.448Z,1001.01
2024-01-01T04:09:18.378Z,1001.01
2024-01-01T04:10:18.380Z,1001.00
2024-01-01T04:11:18.427Z,1000.99
2024-01-01T04:12:18.389Z,1000.98
2024-01-01T04:13:18.407Z,1000.97
2024-01-01T04:14:18.411Z,1000.98
2024-01-01T04:15:18.319Z,1000.98
2024-01-01T04:16:18.324Z,1000.99
2024-01-01T04:17:18.370Z,1000.98
2024-01-01T04:18:18.415Z,1000.98
2024-01-01T04:19:18.313Z,1000.97
2024-01-01T04:20:18.355Z,1000.95
2024-01-01T04:21:18.255Z,1000.93
2024-01-01T04:22:18.265Z,1000.92
2024-01-01T04:23:18.257Z,1000.92
2024-01-01T04:24:18.233Z,1000.93
2024-01-01T04:25:18.220Z,1000.92
2024-01-01T04:26:18.255Z,1000.93
2024-01-01T04:27:18.201Z,1000.93
2024-01-01T04:28:18.193Z,1000.91
2024-01-01T04:29:18.220Z,1000.90
2024-01-01T04:30:18.192Z,1000.91
2024-01-01T04:31:18.143Z,1000.90
2024-01-01T04:32:18.166Z,1000.91
2024-01-01T04:33:18.143Z,1000.88
2024-01-01T04:34:18.129Z,1000.89
2024-01-01T04:35:18.207Z,1000.89
2024-01-01T04:36:18.118Z,1000.88
2024-01-01T04:37:18.066Z,1000.86
2024-01-01T04:38:18.140Z,1000.88
2024-01-01T04:39:18.048Z,1000.89
2024-01-01T04:40:18.074Z,1000.91
2024-01-01T04:41:18.150Z,1000.92
2024-01-01T04:42:18.023Z,1000.91
2024-01-01T04:43:18.025Z,1000.89
2024-01-01T04:44:18.040Z,1000.86
2024-01-01T04:45:18.011Z,1000.83
2024-01-01T04:46:17.976Z,1000.83
2024-01-01T04:47:18.002Z,1000.84
2024-01-01T04:48:17.994Z,1000.85
2024-01-01T04:49:17.946Z,1000.85
2024-01-01T04:50:18.071Z,1000.85
2024-01-01T04:51:19.645Z,1000.83
2024-01-01T04:52:17.961Z,1000.83
2024-01-01T04:53:18.021Z,1000.83
2024-01-01T04:54:17.883Z,1000.84
2024-01-01T04:55:17.891Z,1000.86
2024-01-01T04:56:17.888Z,1000.83
2024-01-01T04:57:17.866Z,1000.85
2024-01-01T04:58:17.838Z,1000.85
2024-01-01T04:59:17.869Z,1000.85
2024-01-01T05:00:17.919Z,1000.84
2024-01-01T05:01:17.909Z,1000.85
2024-01-01T05:02:17.839Z,1000.84
2024-01-01T05:03:17.786Z,1000.84
2024-01-01T05:04:17.776Z,1000.84
2024-01-01T05:05:17.787Z,1000.84
2024-01-01T05:06:17.791Z,1000.84
2024-01-01T05:07:17.714Z,1000.83
2024-01-01T05:08:17.804Z,1000.83
2024-01-01T05:09:17.697Z,1000.80
2024-01-01T05:10:17.698Z,1000.78
2024-01-01T05:11:17.720Z,1000.78
2024-01-01T05:12:17.698Z,1000.76
2024-01-01T05:13:17.664Z,1000.75
2024-01-01T05:14:17.714Z,1000.74
2024-01-01T05:15:17.648Z,1000.72
2024-01-01T05:16:17.628Z,1000.72
2024-01-01T05:17:17.713Z,1000.72
2024-01-01T05:18:17.724Z,1000.73
2024-01-01T05:19:17.670Z,1000.73
2024-01-01T05:20:17.660Z,1000.73
2024-01-01T05:21:17.560Z,1000.71
2024-01-01T05:22:17.599Z,1000.71
2024-01-01T05:23:17.705Z,1000.71
2024-01-01T05:24:17.545Z,1000.69
2024-01-01T05:25:17.648Z,1000.70
2024-01-01T05:26:17.617Z,1000.70
2024-01-01T05:27:17.496Z,1000.69
2024-01-01T05:28:17.524Z,1000.68
2024-01-01T05:29:17.575Z,1000.67
2024-01-01T05:30:17.499Z,1000.69
2024-01-01T05:31:17.455Z,1000.69
2024-01-01T05:32:17.614Z,1000.69
2024-01-01T05:33:17.538Z,1000.69
2024-01-01T05:34:17.442Z,1000.71
2024-01-01T05:35:17.593Z,1000.72
2024-01-01T05:36:17.402Z,1000.74
2024-01-01T05:37:17.394Z,1000.75
2024-01-01T05:38:17.453Z,1000.76
2024-01-01T05:39:17.406Z,1000.76
2024-01-01T05:40:17.422Z,1000.74
2024-01-01T05:41:17.400Z,1000.74
2024-01-01T05:42:17.334Z,1000.74
2024-01-01T05:43:17.329Z,1000.75
2024-01-01T05:44:17.405Z,1000.76
2024-01-01T05:45:17.326Z,1000.74
2024-01-01T05:46:17.284Z,1000.75
2024-01-01T05:47:17.315Z,1000.78
2024-01-01T05:48:25.532Z,1000.79
2024-01-01T05:49:17.309Z,1000.79
2024-01-01T05:50:17.326Z,1000.79
2024-01-01T05:51:17.223Z,1000.78
2024-01-01T05:52:17.217Z,1000.76
2024-01-01T05:53:17.248Z,1000.76
2024-01-01T05:54:17.234Z,1000.75
2024-01-01T05:55:17.185Z,1000.77
2024-01-01T05:56:17.230Z,1000.77
2024-01-01T05:57:17.147Z,1000.76
2024-01-01T05:58:17.168Z,1000.76
2024-01-01T05:59:17.205Z,1000.76
2024-01-01T06:00:17.134Z,1000.77
2024-01-01T06:01:17.139Z,1000.79
2024-01-01T06:02:17.160Z,1000.79
2024-01-01T06:03:17.159Z,1000.80
2024-01-01T06:04:17.103Z,1000.81
2024-01-01T06:05:17.273Z,1000.83
2024-01-01T06:06:17.090Z,1000.83
2024-01-01T06:07:17.047Z,1000.83
2024-01-01T06:08:17.205Z,1000.84
2024-01-01T06:09:17.019Z,1000.86
2024-01-01T06:10:17.064Z,1000.86
2024-01-01T06:11:17.122Z,1000.86
2024-01-01T06:12:17.016Z,1000.87
2024-01-01T06:13:17.021Z,1000.89
2024-01-01T06:14:17.043Z,1000.88
2024-01-01T06:15:16.991Z,1000.90
2024-01-01T06:16:17.035Z,1000.89
2024-01-01T06:17:20.129Z,1000.90
2024-01-01T06:18:17.199Z,1000.89
2024-01-01T06:19:17.092Z,1000.88
2024-01-01T06:20:17.216Z,1000.88
2024-01-01T06:21:16.875Z,1000.86
2024-01-01T06:22:16.932Z,1000.84
2024-01-01T06:23:17.050Z,1000.82
2024-01-01T06:24:16.862Z,1000.81
2024-01-01T06:25:16.843Z,1000.79
2024-01-01T06:26:17.035Z,1000.77
2024-01-01T06:27:16.819Z,1000.76
2024-01-01T06:28:16.856Z,1000.74
2024-01-01T06:29:16.874Z,1000.74
2024-01-01T06:30:16.808Z,1000.73
2024-01-01T06:31:16.766Z,1000.73
2024-01-01T06:32:16.916Z,1000.74
2024-01-01T06:33:16.904Z,1000.75
2024-01-01T06:34:16.773Z,1000.75
2024-01-01T06:35:16.826Z,1000.76
2024-01-01T06:36:16.726Z,1000.77
2024-01-01T06:37:16.722Z,1000.78
2024-01-01T06:38:16.798Z,1000.79
2024-01-01T06:39:16.713Z,1000.80
2024-01-01T06:40:16.695Z,1000.81
2024-01-01T06:41:16.805Z,1000.80
2024-01-01T06:42:18.588Z,1000.79
2024-01-01T06:43:16.659Z,1000.81
2024-01-01T06:44:16.694Z,1000.83
2024-01-01T06:45:16.622Z,1000.85
2024-01-01T06:46:16.677Z,1000.87
2024-01-01T06:47:16.741Z,1000.85
2024-01-01T06:48:16.616Z,1000.87
2024-01-01T06:49:16.626Z,1000.88
2024-01-01T06:50:16.685Z,1000.88
2024-01-01T06:51:16.552Z,1000.87
2024-01-01T06:52:16.536Z,1000.87
2024-01-01T06:53:16.619Z,1000.84
2024-01-01T06:54:16.548Z,1000.83
2024-01-01T06:55:16.516Z,1000.82
2024-01-01T06:56:16.534Z,1000.82
2024-01-01T06:57:16.492Z,1000.83
2024-01-01T06:58:16.544Z,1000.85
2024-01-01T06:59:16.560Z,1000.86
2024-01-01T07:00:16.455Z,1000.88
2024-01-01T07:01:16.438Z,1000.88
2024-01-01T07:02:16.458Z,1000.89
2024-01-01T07:03:16.512Z,1000.91
2024-01-01T07:04:16.397Z,1000.91
2024-01-01T07:05:16.540Z,1000.93
2024-01-01T07:06:16.458Z,1000.97
2024-01-01T07:07:16.388Z,1000.99
2024-01-01T07:08:16.447Z,1001.02
2024-01-01T07:09:16.346Z,1001.03
2024-01-01T07:10:16.355Z,1001.05
2024-01-01T07:11:16.345Z,1001.04
2024-01-01T07:12:16.316Z,1001.05
2024-01-01T07:13:16.306Z,1001.07
2024-01-01T07:14:16.395Z,1001.05
2024-01-01T07:15:16.328Z,1001.05
2024-01-01T07:16:16.304Z,1001.05
2024-01-01T07:17:16.375Z,1001.02
2024-01-01T07:18:16.706Z,1001.03
2024-01-01T07:19:16.313Z,1001.02
2024-01-01T07:20:16.290Z,1001.02
2024-01-01T07:21:16.260Z,1001.01
2024-01-01T07:22:16.215Z,1001.03
2024-01-01T07:23:16.256Z,1001.05
2024-01-01T07:24:16.237Z,1001.05
2024-01-01T07:25:16.154Z,1001.04
2024-01-01T07:26:16.166Z,1001.04
2024-01-01T07:27:16.145Z,1001.04
2024-01-01T07:28:16.159Z,1001.03
2024-01-01T07:29:16.152Z,1001.03
2024-01-01T07:30:16.278Z,1001.05
2024-01-01T07:31:16.099Z,1001.02
2024-01-01T07:32:16.224Z,1001.03
2024-01-01T07:33:16.180Z,1001.02
2024-01-01T07:34:16.103Z,1001.02
2024-01-01T07:35:16.090Z,1001.03
2024-01-01T07:36:16.076Z,1001.05
2024-01-01T07:37:16.078Z,1001.05
2024-01-01T07:38:16.080Z,1001.06
2024-01-01T07:39:15.998Z,1001.06
2024-01-01T07:40:16.012Z,1001.05
2024-01-01T07:41:16.081Z,1001.05
2024-01-01T07:42:16.018Z,1001.03
2024-01-01T07:43:15.984Z,1001.05
2024-01-01T07:44:16.011Z,1001.05
2024-01-01T07:45:15.969Z,1001.05
2024-01-01T07:46:15.951Z,1001.06
2024-01-01T07:47:15.996Z,1001.05
2024-01-01T07:48:16.094Z,1001.06
2024-01-01T07:49:15.941Z,1001.06
2024-01-01T07:50:16.934Z,1001.05
2024-01-01T07:51:15.884Z,1001.03
2024-01-01T07:52:15.888Z,1001.04
2024-01-01T07:53:16.007Z,1001.04
2024-01-01T07:54:15.871Z,1001.04
2024-01-01T07:55:15.856Z,1001.06
2024-01-01T07:56:15.907Z,1001.07
2024-01-01T07:57:15.825Z,1001.09
2024-01-01T07:58:15.954Z,1001.09
2024-01-01T07:59:15.949Z,1001.09
2024-01-01T08:00:15.805Z,1001.09
2024-01-01T08:01:15.808Z,1001.11
2024-01-01T08:02:15.873Z,1001.13
2024-01-01T08:03:15.784Z,1001.14
2024-01-01T08:04:15.751Z,1001.16
2024-01-01T08:05:15.835Z,1001.17
2024-01-01T08:06:15.774Z,1001.15
2024-01-01T08:07:15.710Z,1001.16
2024-01-01T08:08:18.031Z,1001.17
2024-01-01T08:09:15.753Z,1001.19
2024-01-01T08:10:15.714Z,1001.18
2024-01-01T08:11:15.695Z,1001.21
2024-01-01T08:12:15.635Z,1001.21
2024-01-01T08:13:15.672Z,1001.23
2024-01-01T08:14:15.656Z,1001.24
2024-01-01T08:15:15.609Z,1001.23
2024-01-01T08:16:15.604Z,1001.23
2024-01-01T08:17:15.598Z,1001.22
2024-01-01T08:18:15.672Z,1001.21
2024-01-01T08:19:15.605Z,1001.22
2024-01-01T08:20:15.617Z,1001.22
2024-01-01T08:21:15.541Z,1001.22
2024-01-01T08:22:15.509Z,1001.22
2024-01-01T08:23:15.619Z,1001.21
2024-01-01T08:24:15.519Z,1001.22
2024-01-01T08:25:15.495Z,1001.24
2024-01-01T08:26:15.582Z,1001.26
2024-01-01T08:27:15.459Z,1001.30
2024-01-01T08:28:15.441Z,1001.34
2024-01-01T08:29:15.538Z,1001.35
2024-01-01T08:30:15.477Z,1001.36
2024-01-01T08:31:15.430Z,1001.38
2024-01-01T08:32:15.549Z,1001.38
2024-01-01T08:33:15.487Z,1001.36
2024-01-01T08:34:15.396Z,1001.36
2024-01-01T08:35:16.020Z,1001.36
2024-01-01T08:36:15.371Z,1001.36
2024-01-01T08:37:15.334Z,1001.37
2024-01-01T08:38:15.355Z,1001.36
2024-01-01T08:39:15.348Z,1001.35
2024-01-01T08:40:15.331Z,1001.36
2024-01-01T08:41:18.617Z,1001.34
2024-01-01T08:42:15.272Z,1001.33
2024-01-01T08:43:15.287Z,1001.34
2024-01-01T08:44:15.342Z,1001.36
2024-01-01T08:45:15.247Z,1001.34
2024-01-01T08:46:15.242Z,1001.36
2024-01-01T08:47:15.282Z,1001.37
2024-01-01T08:48:15.291Z,1001.37
2024-01-01T08:49:15.300Z,1001.38
2024-01-01T08:50:15.264Z,1001.37
2024-01-01T08:51:15.187Z,1001.39
2024-01-01T08:52:15.204Z,1001.38
2024-01-01T08:53:16.902Z,1001.40
2024-01-01T08:54:15.163Z,1001.42
2024-01-01T08:55:15.159Z,1001.41
2024-01-01T08:56:15.316Z,1001.41
2024-01-01T08:57:15.119Z,1001.43
2024-01-01T08:58:15.108Z,1001.44
2024-01-01T08:59:15.210Z,1001.43
2024-01-01T09:00:17.592Z,1001.44
2024-01-01T09:01:15.143Z,1001.45
2024-01-01T09:02:15.132Z,1001.46
2024-01-01T09:03:15.133Z,1001.46
2024-01-01T09:04:15.038Z,1001.48
2024-01-01T09:05:15.135Z,1001.50
2024-01-01T09:06:15.152Z,1001.51
2024-01-01T09:07:15.017Z,1001.48
2024-01-01T09:08:15.017Z,1001.51
2024-01-01T09:09:14.988Z,1001.51
2024-01-01T09:10:14.975Z,1001.54
2024-01-01T09:11:15.024Z,1001.57
2024-01-01T09:12:14.995Z,1001.55
2024-01-01T09:13:14.952Z,1001.54
2024-01-01T09:14:14.944Z,1001.57
2024-01-01T09:15:14.909Z,1001.56
2024-01-01T09:16:14.928Z,1001.57
2024-01-01T09:17:14.965Z,1001.60
2024-01-01T09:18:15.428Z,1001.60
2024-01-01T09:19:14.895Z,1001.60
2024-01-01T09:20:14.967Z,1001.64
2024-01-01T09:21:14.894Z,1001.63
2024-01-01T09:22:14.853Z,1001.63
2024-01-01T09:23:14.968Z,1001.62
2024-01-01T09:24:14.823Z,1001.61
2024-01-01T09:25:14.838Z,1001.58
2024-01-01T09:26:14.846Z,1001.58
2024-01-01T09:27:14.800Z,1001.57
2024-01-01T09:28:14.757Z,1001.58
2024-01-01T09:29:14.878Z,1001.61
2024-01-01T09:30:14.771Z,1001.57
2024-01-01T09:31:14.782Z,1001.59
2024-01-01T09:32:14.769Z,1001.59
2024-01-01T09:33:14.885Z,1001.59
2024-01-01T09:34:14.711Z,1001.59
2024-01-01T09:35:14.730Z,1001.61
2024-01-01T09:36:14.740Z,1001.64
2024-01-01T09:37:14.681Z,1001.62
2024-01-01T09:38:17.396Z,1001.64
2024-01-01T09:39:14.743Z,1001.62
2024-01-01T09:40:14.690Z,1001.61
2024-01-01T09:41:14.717Z,1001.58
2024-01-01T09:42:14.612Z,1001.58
2024-01-01T09:43:14.610Z,1001.55
2024-01-01T09:44:14.619Z,1001.55
2024-01-01T09:45:14.588Z,1001.52
2024-01-01T09:46:14.580Z,1001.54
2024-01-01T09:47:14.609Z,1001.55
2024-01-01T09:48:14.582Z,1001.54
2024-01-01T09:49:14.689Z,1001.56
2024-01-01T09:50:14.590Z,1001.59
2024-01-01T09:51:14.518Z,1001.61
2024-01-01T09:52:14.530Z,1001.61
2024-01-01T09:53:14.507Z,1001.60
2024-01-01T09:54:14.510Z,1001.60
2024-01-01T09:55:14.483Z,1001.60
2024-01-01T09:56:14.676Z,1001.63
2024-01-01T09:57:14.448Z,1001.61
2024-01-01T09:58:14.446Z,1001.64
2024-01-01T09:59:14.478Z,1001.64
2024-01-01T10:00:14.406Z,1001.62
2024-01-01T10:01:14.406Z,1001.61
2024-01-01T10:02:14.405Z,1001.61
2024-01-01T10:03:14.435Z,1001.60
2024-01-01T10:04:14.348Z,1001.60
2024-01-01T10:05:14.580Z,1001.61
2024-01-01T10:06:14.460Z,1001.59
2024-01-01T10:07:14.333Z,1001.58
2024-01-01T10:08:14.402Z,1001.62
2024-01-01T10:09:14.332Z,1001.54
2024-01-01T10:10:14.314Z,1001.53
2024-01-01T10:11:14.310Z,1001.51
2024-01-01T10:12:14.274Z,1001.51
2024-01-01T10:13:14.313Z,1001.48
2024-01-01T10:14:14.288Z,1001.48
2024-01-01T10:15:14.269Z,1001.46
2024-01-01T10:16:14.238Z,1001.47
2024-01-01T10:17:14.343Z,1001.44
2024-01-01T10:18:14.441Z,1001.44
2024-01-01T10:19:14.285Z,1001.39
2024-01-01T10:20:14.282Z,1001.41
2024-01-01T10:21:15.043Z,1001.49
2024-01-01T10:22:14.157Z,1001.50
2024-01-01T10:23:14.224Z,1001.49
2024-01-01T10:24:26.067Z,1001.49
2024-01-01T10:25:14.234Z,1001.50
2024-01-01T10:26:14.145Z,1001.50
2024-01-01T10:27:14.097Z,1001.51
2024-01-01T10:28:14.107Z,1001.52
2024-01-01T10:29:14.166Z,1001.51
2024-01-01T10:30:14.227Z,1001.52
2024-01-01T10:31:14.067Z,1001.52
2024-01-01T10:32:14.063Z,1001.54
2024-01-01T10:33:14.097Z,1001.55
2024-01-01T10:34:14.090Z,1001.54
2024-01-01T10:35:14.025Z,1001.54
2024-01-01T10:36:14.018Z,1001.53
2024-01-01T10:37:14.023Z,1001.52
2024-01-01T10:38:14.052Z,1001.52
2024-01-01T10:39:14.055Z,1001.55
2024-01-01T10:40:13.960Z,1001.55
2024-01-01T10:41:13.988Z,1001.54
2024-01-01T10:42:13.922Z,1001.55
2024-01-01T10:43:13.928Z,1001.55
2024-01-01T10:44:13.949Z,1001.58
2024-01-01T10:45:13.940Z,1001.57
2024-01-01T10:46:13.900Z,1001.59
2024-01-01T10:47:13.969Z,1001.60
2024-01-01T10:48:13.985Z,1001.58
2024-01-01T10:49:13.943Z,1001.57
2024-01-01T10:50:13.905Z,1001.59
2024-01-01T10:51:13.864Z,1001.59
2024-01-01T10:52:13.875Z,1001.61
2024-01-01T10:53:13.884Z,1001.62
2024-01-01T10:54:13.826Z,1001.60
2024-01-01T10:55:13.836Z,1001.61
2024-01-01T10:56:13.915Z,1001.61
2024-01-01T10:57:13.838Z,1001.60
2024-01-01T10:58:13.779Z,1001.59
2024-01-01T10:59:13.814Z,1001.61
2024-01-01T11:00:13.727Z,1001.59
2024-01-01T11:01:13.828Z,1001.61
2024-01-01T11:02:13.744Z,1001.60
2024-01-01T11:03:13.742Z,1001.59
2024-01-01T11:04:13.706Z,1001.58
2024-01-01T11:05:13.790Z,1001.58
2024-01-01T11:06:13.743Z,1001.58
2024-01-01T11:07:13.672Z,1001.56
2024-01-01T11:08:13.707Z,1001.56
2024-01-01T11:09:13.639Z,1001.55
2024-01-01T11:10:21.655Z,1001.56
2024-01-01T11:11:13.673Z,1001.57
2024-01-01T11:12:13.610Z,1001.56
2024-01-01T11:13:13.600Z,1001.57
2024-01-01T11:14:13.587Z,1001.58
2024-01-01T11:15:13.551Z,1001.57
2024-01-01T11:16:13.563Z,1001.59
2024-01-01T11:17:13.588Z,1001.58
2024-01-01T11:18:13.811Z,1001.60
2024-01-01T11:19:13.624Z,1001.59
2024-01-01T11:20:13.558Z,1001.59
2024-01-01T11:21:13.521Z,1001.60
2024-01-01T11:22:13.483Z,1001.56
2024-01-01T11:23:13.519Z,1001.55
2024-01-01T11:24:20.926Z,1001.54
2024-01-01T11:25:14.851Z,1001.51
2024-01-01T11:26:13.539Z,1001.51
2024-01-01T11:27:13.422Z,1001.52
2024-01-01T11:28:13.393Z,1001.52
2024-01-01T11:29:13.448Z,1001.52
2024-01-01T11:30:13.430Z,1001.52
2024-01-01T11:31:13.408Z,1001.53
2024-01-01T11:32:13.392Z,1001.52
2024-01-01T11:33:13.503Z,1001.54
2024-01-01T11:34:21.481Z,1001.53
2024-01-01T11:35:13.606Z,1001.54
2024-01-01T11:36:13.352Z,1001.53
2024-01-01T11:37:13.314Z,1001.55
2024-01-01T11:38:13.446Z,1001.53
2024-01-01T11:39:13.364Z,1001.55
2024-01-01T11:40:13.351Z,1001.57
2024-01-01T11:41:13.292Z,1001.57
2024-01-01T11:42:13.249Z,1001.58
2024-01-01T11:43:13.650Z,1001.57
2024-01-01T11:44:13.278Z,1001.60
2024-01-01T11:45:13.318Z,1001.54
2024-01-01T11:46:13.201Z,1001.55
2024-01-01T11:47:13.241Z,1001.56
2024-01-01T11:48:13.277Z,1001.54
2024-01-01T11:49:13.517Z,1001.54
2024-01-01T11:50:13.296Z,1001.56
2024-01-01T11:51:13.184Z,1001.55
2024-01-01T11:52:13.162Z,1001.54
2024-01-01T11:53:13.205Z,1001.52
2024-01-01T11:54:13.104Z,1001.52
2024-01-01T11:55:13.157Z,1001.50
2024-01-01T11:56:13.184Z,1001.49
2024-01-01T11:57:13.085Z,1001.47
2024-01-01T11:58:13.077Z,1001.46
2024-01-01T11:59:13.117Z,1001.46
2024-01-01T12:00:13.050Z,1001.45
2024-01-01T12:01:13.077Z,1001.44
2024-01-01T12:02:13.090Z,1001.43
2024-01-01T12:03:13.035Z,1001.44
2024-01-01T12:04:13.076Z,1001.42
2024-01-01T12:05:13.221Z,1001.41